createdAt,value
2022-12-19T00:01:36.719Z,92.35
2022-12-19T00:04:07.637Z,71.85
2022-12-19T00:06:34.787Z,78.35
2022-12-19T00:09:01.907Z,79.15
2022-12-19T00:11:30.150Z,87.60
2022-12-19T00:13:57.895Z,104.65
2022-12-19T00:16:27.111Z,80.27
2022-12-19T00:18:55.828Z,97.43
2022-12-19T00:21:24.799Z,87.32
2022-12-19T00:23:52.502Z,97.75
2022-12-19T00:26:20.766Z,101.53
2022-12-19T00:28:53.192Z,85.38
2022-12-19T00:31:21.497Z,95.47
2022-12-19T00:33:49.439Z,104.38
2022-12-19T00:36:22.553Z,98.20
2022-12-19T00:38:51.785Z,93.90
2022-12-19T00:41:23.718Z,111.67
2022-12-19T00:43:55.168Z,73.68
2022-12-19T00:46:22.551Z,118.72
2022-12-19T00:48:49.550Z,92.07
2022-12-19T00:51:19.413Z,89.45
2022-12-19T00:53:48.372Z,78.47
2022-12-19T00:56:18.219Z,107.97
2022-12-19T00:58:47.268Z,93.63
2022-12-19T01:01:17.558Z,76.07
2022-12-19T01:04:04.291Z,77.95
2022-12-19T01:06:32.368Z,85.00
2022-12-19T01:09:00.466Z,89.28
2022-12-19T01:11:45.733Z,101.25
2022-12-19T01:14:19.199Z,86.30
2022-12-19T01:16:49.709Z,100.22
2022-12-19T01:19:16.661Z,68.10
2022-12-19T01:21:43.506Z,78.97
2022-12-19T01:24:15.808Z,83.93
2022-12-19T01:26:49.412Z,78.43
2022-12-19T01:29:16.282Z,67.18
2022-12-19T01:31:43.391Z,66.65
2022-12-19T01:34:10.671Z,82.97
2022-12-19T01:36:39.821Z,92.38
2022-12-19T01:39:08.085Z,69.32
2022-12-19T01:41:35.548Z,73.57
2022-12-19T01:44:07.057Z,73.63
2022-12-19T01:46:38.563Z,77.45
2022-12-19T01:49:10.823Z,61.78
2022-12-19T01:51:44.005Z,88.43
2022-12-19T01:54:15.771Z,83.15
2022-12-19T01:56:46.039Z,83.25
2022-12-19T01:59:33.214Z,75.60
2022-12-19T02:02:19.658Z,79.72
2022-12-19T02:04:47.509Z,67.50
2022-12-19T02:07:17.312Z,70.60
2022-12-19T02:09:46.973Z,73.70
2022-12-19T02:12:14.771Z,85.15
2022-12-19T02:14:42.205Z,76.90
2022-12-19T02:17:24.600Z,76.60
2022-12-19T02:20:32.052Z,63.35
2022-12-19T02:23:26.325Z,67.43
2022-12-19T02:26:09.488Z,59.13
2022-12-19T02:28:45.459Z,61.25
2022-12-19T02:31:35.021Z,72.93
2022-12-19T02:34:18.835Z,80.07
2022-12-19T02:37:20.949Z,69.95
2022-12-19T02:40:00.003Z,56.72
2022-12-19T02:42:32.286Z,61.90
2022-12-19T02:45:05.912Z,70.15
2022-12-19T02:47:34.013Z,58.63
2022-12-19T02:50:02.864Z,76.20
2022-12-19T02:52:30.216Z,59.22
2022-12-19T02:55:04.585Z,60.67
2022-12-19T02:57:46.585Z,70.80
2022-12-19T03:00:20.762Z,58.33
2022-12-19T03:03:01.154Z,54.20
2022-12-19T03:05:49.233Z,61.33
2022-12-19T03:08:26.222Z,62.83
2022-12-19T03:10:59.792Z,64.80
2022-12-19T03:13:38.673Z,66.30
2022-12-19T03:16:09.497Z,57.03
2022-12-19T03:18:37.788Z,58.30
2022-12-19T03:21:13.564Z,56.47
2022-12-19T03:23:41.659Z,60.42
2022-12-19T03:26:20.481Z,48.15
2022-12-19T03:28:50.233Z,56.93
2022-12-19T03:31:20.827Z,52.80
2022-12-19T03:33:51.633Z,64.43
2022-12-19T03:36:22.836Z,60.30
2022-12-19T03:38:50.201Z,55.22
2022-12-19T03:41:38.907Z,60.80
2022-12-19T03:44:08.707Z,56.45
2022-12-19T03:46:39.959Z,65.78
2022-12-19T03:49:07.290Z,54.90
2022-12-19T03:51:59.506Z,57.00
2022-12-19T03:54:34.035Z,59.40
2022-12-19T03:57:19.507Z,58.35
2022-12-19T03:59:50.773Z,63.55
2022-12-19T04:02:21.046Z,60.20
2022-12-19T04:04:53.097Z,66.03
2022-12-19T04:07:21.628Z,61.92
2022-12-19T04:09:51.196Z,59.35
2022-12-19T04:12:22.969Z,67.35
2022-12-19T04:14:50.381Z,64.18
2022-12-19T04:17:30.709Z,65.50
2022-12-19T04:20:08.550Z,49.95
2022-12-19T04:23:02.837Z,58.97
2022-12-19T04:25:35.469Z,63.90
2022-12-19T04:28:07.942Z,63.58
2022-12-19T04:30:36.380Z,53.83
2022-12-19T04:33:04.484Z,54.53
2022-12-19T04:35:31.707Z,64.93
2022-12-19T04:37:58.862Z,64.53
2022-12-19T04:40:25.801Z,46.35
2022-12-19T04:42:52.686Z,61.10
2022-12-19T04:45:19.666Z,63.08
2022-12-19T04:47:46.767Z,66.05
2022-12-19T04:50:13.746Z,60.53
2022-12-19T04:52:40.646Z,55.22
2022-12-19T04:55:08.235Z,56.28
2022-12-19T04:57:35.205Z,57.40
2022-12-19T05:00:04.025Z,47.70
2022-12-19T05:02:31.224Z,54.88
2022-12-19T05:04:58.268Z,54.88
2022-12-19T05:07:25.177Z,56.65
2022-12-19T05:09:52.161Z,45.87
2022-12-19T05:12:19.142Z,45.75
2022-12-19T05:14:46.056Z,55.05
2022-12-19T05:17:13.048Z,51.13
2022-12-19T05:19:39.999Z,45.78
2022-12-19T05:22:06.893Z,44.80
2022-12-19T05:24:33.823Z,45.85
2022-12-19T05:27:00.758Z,46.80
2022-12-19T05:29:27.723Z,43.78
2022-12-19T05:31:54.637Z,42.22
2022-12-19T05:34:21.666Z,45.65
2022-12-19T05:36:48.583Z,43.33
2022-12-19T05:39:15.622Z,41.65
2022-12-19T05:41:46.289Z,43.50
2022-12-19T05:44:15.851Z,46.70
2022-12-19T05:46:42.813Z,44.80
2022-12-19T05:49:09.751Z,38.90
2022-12-19T05:51:36.837Z,48.75
2022-12-19T05:54:04.132Z,46.88
2022-12-19T05:56:31.059Z,42.45
2022-12-19T05:58:58.029Z,41.20
2022-12-19T06:01:27.503Z,48.08
2022-12-19T06:03:55.380Z,42.00
2022-12-19T06:06:25.107Z,45.90
2022-12-19T06:08:57.133Z,41.33
2022-12-19T06:11:25.024Z,43.30
2022-12-19T06:13:52.157Z,45.15
2022-12-19T06:16:21.511Z,44.97
2022-12-19T06:18:48.517Z,41.97
2022-12-19T06:21:18.287Z,36.50
2022-12-19T06:23:45.677Z,42.72
2022-12-19T06:26:18.995Z,41.58
2022-12-19T06:28:48.513Z,44.40
2022-12-19T06:31:16.020Z,43.30
2022-12-19T06:33:43.081Z,40.63
2022-12-19T06:36:30.508Z,39.10
2022-12-19T06:38:58.541Z,40.33
2022-12-19T06:41:44.995Z,37.85
2022-12-19T06:44:17.293Z,41.72
2022-12-19T06:46:44.534Z,39.47
2022-12-19T06:49:12.200Z,38.65
2022-12-19T06:51:39.205Z,36.85
2022-12-19T06:54:06.604Z,43.67
2022-12-19T06:56:37.574Z,35.20
2022-12-19T06:59:05.754Z,36.63
2022-12-19T07:01:57.098Z,32.92
2022-12-19T07:04:32.687Z,35.72
2022-12-19T07:07:00.869Z,32.90
2022-12-19T07:09:30.470Z,29.73
2022-12-19T07:11:58.054Z,33.67
2022-12-19T07:14:25.002Z,30.13
2022-12-19T07:16:53.337Z,30.58
2022-12-19T07:19:23.086Z,32.38
2022-12-19T07:21:50.275Z,24.90
2022-12-19T07:24:17.422Z,28.77
2022-12-19T07:26:48.401Z,25.00
2022-12-19T07:29:15.356Z,21.45
2022-12-19T07:31:42.338Z,21.77
2022-12-19T07:34:10.066Z,20.75
2022-12-19T07:36:37.092Z,19.40
2022-12-19T07:39:04.238Z,22.85
2022-12-19T07:41:31.242Z,19.88
2022-12-19T07:43:58.437Z,19.42
2022-12-19T07:46:29.629Z,20.35
2022-12-19T07:48:57.351Z,25.63
2022-12-19T07:51:24.469Z,18.60
2022-12-19T07:53:51.391Z,21.42
2022-12-19T07:56:18.313Z,18.90
2022-12-19T07:58:45.290Z,18.92
2022-12-19T08:01:15.046Z,19.30
2022-12-19T08:03:42.065Z,23.70
2022-12-19T08:06:09.840Z,21.40
2022-12-19T08:08:37.948Z,20.20
2022-12-19T08:11:11.191Z,23.23
2022-12-19T08:13:43.326Z,19.77
2022-12-19T08:16:13.269Z,21.45
2022-12-19T08:18:40.600Z,20.80
2022-12-19T08:21:08.992Z,22.67
2022-12-19T08:23:36.320Z,22.23
2022-12-19T08:26:06.099Z,18.75
2022-12-19T08:28:34.867Z,22.00
2022-12-19T08:31:13.981Z,20.27
2022-12-19T08:33:41.057Z,20.23
2022-12-19T08:36:13.442Z,22.10
2022-12-19T08:38:40.972Z,23.20
2022-12-19T08:41:09.246Z,22.52
2022-12-19T08:43:36.775Z,21.13
2022-12-19T08:46:04.169Z,17.17
2022-12-19T08:48:35.356Z,15.65
2022-12-19T08:51:05.581Z,20.65
2022-12-19T08:53:34.688Z,15.05
2022-12-19T08:56:06.593Z,16.73
2022-12-19T08:58:34.549Z,14.60
2022-12-19T09:01:05.934Z,17.13
2022-12-19T09:04:04.622Z,15.02
2022-12-19T09:06:20.747Z,15.27
2022-12-19T09:08:48.191Z,12.05
2022-12-19T09:11:17.471Z,15.57
2022-12-19T09:13:45.097Z,14.38
2022-12-19T09:16:19.703Z,15.23
2022-12-19T09:18:49.030Z,14.45
2022-12-19T09:21:17.303Z,14.93
2022-12-19T09:23:52.465Z,14.43
2022-12-19T09:26:24.221Z,14.60
2022-12-19T09:28:54.000Z,13.85
2022-12-19T09:31:23.258Z,13.32
2022-12-19T09:33:50.853Z,13.60
2022-12-19T09:36:23.501Z,15.77
2022-12-19T09:38:53.320Z,12.05
2022-12-19T09:41:38.343Z,12.80
2022-12-19T09:44:42.223Z,11.53
2022-12-19T09:47:20.213Z,13.73
2022-12-19T09:49:48.281Z,13.10
2022-12-19T09:52:33.808Z,14.98
2022-12-19T09:55:06.800Z,18.27
2022-12-19T09:57:49.642Z,14.57
2022-12-19T10:00:20.141Z,13.32
2022-12-19T10:03:19.673Z,15.85
2022-12-19T10:07:07.838Z,16.30
2022-12-19T10:09:25.591Z,12.77
2022-12-19T10:12:42.260Z,15.38
2022-12-19T10:14:46.685Z,11.82
2022-12-19T10:17:37.912Z,12.13
2022-12-19T10:20:20.519Z,12.18
2022-12-19T10:23:32.269Z,13.10
2022-12-19T10:26:23.441Z,11.35
2022-12-19T10:29:54.679Z,12.10
2022-12-19T10:32:46.761Z,10.45
2022-12-19T10:35:18.924Z,10.75
2022-12-19T10:38:09.292Z,11.00
2022-12-19T10:40:43.960Z,13.60
2022-12-19T10:43:42.559Z,8.27
2022-12-19T10:46:20.253Z,9.18
2022-12-19T10:48:50.694Z,9.57
2022-12-19T10:51:29.319Z,13.07
2022-12-19T10:53:58.850Z,12.20
2022-12-19T10:56:37.216Z,9.57
2022-12-19T10:59:17.589Z,9.65
2022-12-19T11:01:45.305Z,10.40
2022-12-19T11:04:34.498Z,8.77
2022-12-19T11:07:04.642Z,8.80
2022-12-19T11:09:40.949Z,7.55
2022-12-19T11:16:35.559Z,9.98
2022-12-19T11:20:08.554Z,9.80
2022-12-19T11:25:14.594Z,12.88
2022-12-19T11:29:30.353Z,9.25
2022-12-19T11:29:42.536Z,10.00
2022-12-19T11:30:43.366Z,9.48
2022-12-19T11:33:17.216Z,7.43
2022-12-19T11:35:53.123Z,15.07
2022-12-19T11:38:32.399Z,6.97
2022-12-19T11:41:05.121Z,9.37
2022-12-19T11:44:02.123Z,9.13
2022-12-19T11:46:39.693Z,9.48
2022-12-19T11:49:12.929Z,7.80
2022-12-19T11:51:40.206Z,10.13
2022-12-19T11:54:26.512Z,7.47
2022-12-19T11:56:53.694Z,7.25
2022-12-19T11:59:31.941Z,7.72
2022-12-19T12:02:16.593Z,8.18
2022-12-19T12:04:49.401Z,6.60
2022-12-19T12:07:43.184Z,7.55
2022-12-19T12:16:18.589Z,7.40
2022-12-19T12:25:11.530Z,5.30
2022-12-19T12:27:21.668Z,5.28
2022-12-19T12:31:22.235Z,5.53
2022-12-19T12:31:44.719Z,7.50
2022-12-19T12:31:44.836Z,5.93
2022-12-19T12:32:06.513Z,9.00
2022-12-19T12:35:15.278Z,5.63
2022-12-19T12:38:52.235Z,8.57
2022-12-19T12:42:06.482Z,5.45
2022-12-19T12:44:45.237Z,7.65
2022-12-19T12:47:25.698Z,4.50
2022-12-19T12:50:05.749Z,6.13
2022-12-19T12:52:47.989Z,7.10
2022-12-19T12:55:40.238Z,5.50
2022-12-19T12:59:04.022Z,4.90
2022-12-19T13:01:40.364Z,5.40
2022-12-19T13:04:13.516Z,5.25
2022-12-19T13:06:49.544Z,6.15
2022-12-19T13:09:31.600Z,4.30
2022-12-19T13:12:21.808Z,6.32
2022-12-19T13:14:52.269Z,4.78
2022-12-19T13:17:47.920Z,5.78
2022-12-19T13:20:26.031Z,5.53
2022-12-19T13:22:58.342Z,6.50
2022-12-19T13:25:34.594Z,6.20
2022-12-19T13:28:01.462Z,4.68
2022-12-19T13:30:50.092Z,4.47
2022-12-19T13:33:21.869Z,10.70
2022-12-19T13:39:46.886Z,7.00
2022-12-19T13:39:55.642Z,5.38
2022-12-19T13:41:59.951Z,7.70
2022-12-19T13:44:27.051Z,4.53
2022-12-19T13:46:55.622Z,4.00
2022-12-19T13:49:34.768Z,4.90
2022-12-19T13:52:04.173Z,4.57
2022-12-19T13:54:37.601Z,5.47
2022-12-19T13:57:27.573Z,5.28
2022-12-19T14:00:00.555Z,5.70
2022-12-19T14:02:54.399Z,4.70
2022-12-19T14:06:16.266Z,5.15
2022-12-19T14:08:28.853Z,3.72
2022-12-19T14:11:34.696Z,5.43
2022-12-19T14:14:19.233Z,5.10
2022-12-19T14:16:51.876Z,5.00
2022-12-19T14:19:29.012Z,5.03
2022-12-19T14:22:20.647Z,4.05
2022-12-19T14:25:49.269Z,4.13
2022-12-19T14:28:21.684Z,5.72
2022-12-19T14:30:49.902Z,3.90
2022-12-19T14:33:44.716Z,3.83
2022-12-19T14:36:33.302Z,5.70
2022-12-19T14:39:23.170Z,5.53
2022-12-19T14:42:10.013Z,4.32
2022-12-19T14:51:42.599Z,7.57
2022-12-19T14:52:51.793Z,4.70
2022-12-19T14:54:22.685Z,6.22
2022-12-19T14:54:52.804Z,5.37
2022-12-19T14:59:18.736Z,4.32
2022-12-19T15:01:52.942Z,3.45
2022-12-19T15:04:49.092Z,5.03
2022-12-19T15:07:25.110Z,4.00
2022-12-19T15:11:07.500Z,3.95
2022-12-19T15:14:51.497Z,4.78
2022-12-19T15:16:02.986Z,5.50
2022-12-19T15:18:33.127Z,3.88
2022-12-19T15:21:04.115Z,3.75
2022-12-19T15:23:31.706Z,6.97
2022-12-19T15:26:07.893Z,6.75
2022-12-19T15:28:42.211Z,3.53
2022-12-19T15:31:34.758Z,4.88
2022-12-19T15:34:36.363Z,6.05
2022-12-19T15:37:05.203Z,4.05
2022-12-19T15:39:32.424Z,6.43
2022-12-19T15:42:01.461Z,3.72
2022-12-19T15:44:36.972Z,5.65
2022-12-19T15:47:37.262Z,6.10
2022-12-19T15:50:23.951Z,9.40
2022-12-19T15:53:02.175Z,6.63
2022-12-19T15:55:30.604Z,4.38
2022-12-19T15:58:05.360Z,6.05
2022-12-19T16:00:35.745Z,4.70
2022-12-19T16:05:50.099Z,3.80
2022-12-19T16:08:20.786Z,8.00
2022-12-19T16:10:56.017Z,6.82
2022-12-19T16:13:31.288Z,4.20
2022-12-19T16:15:58.843Z,6.35
2022-12-19T16:18:26.496Z,5.78
2022-12-19T16:20:53.554Z,4.40
2022-12-19T16:23:22.408Z,7.20
2022-12-19T16:25:53.547Z,6.00
2022-12-19T16:28:29.391Z,4.90
2022-12-19T16:31:00.112Z,7.30
2022-12-19T16:33:31.044Z,4.82
2022-12-19T16:36:06.958Z,3.53
2022-12-19T16:38:34.710Z,3.60
2022-12-19T16:41:01.914Z,3.63
2022-12-19T16:43:47.187Z,5.13
2022-12-19T16:46:23.520Z,6.38
2022-12-19T16:48:50.713Z,5.15
2022-12-19T16:51:23.604Z,3.47
2022-12-19T16:53:53.046Z,4.78
2022-12-19T16:56:25.431Z,3.60
2022-12-19T16:58:52.830Z,4.75
2022-12-19T17:01:20.658Z,4.07
2022-12-19T17:03:47.611Z,6.53
2022-12-19T17:06:19.914Z,6.72
2022-12-19T17:08:47.309Z,5.88
2022-12-19T17:11:17.539Z,5.28
2022-12-19T17:13:46.019Z,4.95
2022-12-19T17:16:13.381Z,4.82
2022-12-19T17:18:42.694Z,4.15
2022-12-19T17:21:21.514Z,4.43
2022-12-19T17:23:49.807Z,3.97
2022-12-19T17:26:18.125Z,3.90
2022-12-19T17:28:49.000Z,6.95
2022-12-19T17:31:38.130Z,5.97
2022-12-19T17:34:18.005Z,4.32
2022-12-19T17:36:45.356Z,6.70
2022-12-19T17:39:30.148Z,7.60
2022-12-19T17:42:09.844Z,5.35
2022-12-19T17:44:36.865Z,5.85
2022-12-19T17:47:04.630Z,6.90
2022-12-19T17:49:32.630Z,4.10
2022-12-19T17:52:00.292Z,8.75
2022-12-19T17:54:27.549Z,3.90
2022-12-19T17:56:55.162Z,3.77
2022-12-19T17:59:22.069Z,5.40
2022-12-19T18:01:49.062Z,4.43
2022-12-19T18:04:22.615Z,7.23
2022-12-19T18:06:49.538Z,4.03
2022-12-19T18:09:20.745Z,5.22
2022-12-19T18:11:49.851Z,4.82
2022-12-19T18:14:17.270Z,5.57
2022-12-19T18:16:45.750Z,4.25
2022-12-19T18:19:24.756Z,3.40
2022-12-19T18:21:51.900Z,4.90
2022-12-19T18:24:18.865Z,4.80
2022-12-19T18:26:45.733Z,4.75
2022-12-19T18:29:12.725Z,4.73
2022-12-19T18:31:46.452Z,3.60
2022-12-19T18:34:25.574Z,5.63
2022-12-19T18:36:53.165Z,4.28
2022-12-19T18:39:20.047Z,5.32
2022-12-19T18:41:47.291Z,4.22
2022-12-19T18:44:14.418Z,5.20
2022-12-19T18:46:41.725Z,5.55
2022-12-19T18:49:14.032Z,5.03
2022-12-19T18:51:41.351Z,3.97
2022-12-19T18:54:17.173Z,6.53
2022-12-19T18:56:44.554Z,4.50
2022-12-19T18:59:11.518Z,3.80
2022-12-19T19:01:43.895Z,6.60
2022-12-19T19:04:13.178Z,4.93
2022-12-19T19:06:48.304Z,5.68
2022-12-19T19:09:18.616Z,6.07
2022-12-19T19:12:13.127Z,4.32
2022-12-19T19:14:41.494Z,4.93
2022-12-19T19:17:23.399Z,4.30
2022-12-19T19:19:50.383Z,4.15
2022-12-19T19:22:17.262Z,4.30
2022-12-19T19:24:44.178Z,5.60
2022-12-19T19:27:11.341Z,5.20
2022-12-19T19:29:38.907Z,4.30
2022-12-19T19:32:05.883Z,6.40
2022-12-19T19:34:37.448Z,8.45
2022-12-19T19:37:07.953Z,7.77
2022-12-19T19:39:35.380Z,7.43
2022-12-19T19:42:03.093Z,6.10
2022-12-19T19:44:30.288Z,6.90
2022-12-19T19:46:57.652Z,6.57
2022-12-19T19:49:24.583Z,5.13
2022-12-19T19:51:54.365Z,6.07
2022-12-19T19:54:25.480Z,5.82
2022-12-19T19:56:52.492Z,5.83
2022-12-19T19:59:19.794Z,4.95
2022-12-19T20:01:46.804Z,6.63
2022-12-19T20:04:14.206Z,8.35
2022-12-19T20:06:41.166Z,3.97
2022-12-19T20:09:09.428Z,4.53
2022-12-19T20:11:36.395Z,4.40
2022-12-19T20:14:04.424Z,6.13
2022-12-19T20:16:31.536Z,6.78
2022-12-19T20:18:58.496Z,8.23
2022-12-19T20:21:25.457Z,6.53
2022-12-19T20:23:52.471Z,6.20
2022-12-19T20:26:19.433Z,5.43
2022-12-19T20:28:49.456Z,8.02
2022-12-19T20:31:18.978Z,7.35
2022-12-19T20:33:46.412Z,6.53
2022-12-19T20:36:14.036Z,8.00
2022-12-19T20:38:41.111Z,5.03
2022-12-19T20:41:08.084Z,5.78
2022-12-19T20:43:35.653Z,5.07
2022-12-19T20:46:05.429Z,5.20
2022-12-19T20:48:32.818Z,5.85
2022-12-19T20:51:01.227Z,8.20
2022-12-19T20:53:28.461Z,4.80
2022-12-19T20:55:58.397Z,5.83
2022-12-19T20:58:30.157Z,5.68
2022-12-19T21:01:02.449Z,6.82
2022-12-19T21:03:30.270Z,6.72
2022-12-19T21:05:58.011Z,5.30
2022-12-19T21:08:26.295Z,9.60
2022-12-19T21:10:54.258Z,5.20
2022-12-19T21:13:21.801Z,6.40
2022-12-19T21:15:56.800Z,6.47
2022-12-19T21:18:23.793Z,4.90
2022-12-19T21:20:53.001Z,6.38
2022-12-19T21:23:20.354Z,7.07
2022-12-19T21:25:47.334Z,5.40
2022-12-19T21:28:14.368Z,5.35
2022-12-19T21:30:41.587Z,4.25
2022-12-19T21:33:09.352Z,5.30
2022-12-19T21:35:37.960Z,6.57
2022-12-19T21:38:05.045Z,5.38
2022-12-19T21:40:31.932Z,5.00
2022-12-19T21:42:58.892Z,5.88
2022-12-19T21:45:25.724Z,7.32
2022-12-19T21:47:52.605Z,6.22
2022-12-19T21:50:19.612Z,6.40
2022-12-19T21:52:49.039Z,6.22
2022-12-19T21:55:18.425Z,5.03
2022-12-19T21:57:45.356Z,7.00
2022-12-19T22:00:13.270Z,5.13
2022-12-19T22:02:55.445Z,5.47
2022-12-19T22:05:27.041Z,7.00
2022-12-19T22:07:53.897Z,5.00
2022-12-19T22:10:20.907Z,5.18
2022-12-19T22:12:48.371Z,5.80
2022-12-19T22:15:15.217Z,4.03
2022-12-19T22:17:43.825Z,5.03
2022-12-19T22:20:11.034Z,7.07
2022-12-19T22:22:38.007Z,6.45
2022-12-19T22:25:05.203Z,5.95
2022-12-19T22:27:32.128Z,5.97
2022-12-19T22:30:02.128Z,4.45
2022-12-19T22:32:31.801Z,6.32
2022-12-19T22:34:58.701Z,4.75
2022-12-19T22:37:25.565Z,6.15
2022-12-19T22:39:52.476Z,4.53
2022-12-19T22:42:19.304Z,6.35
2022-12-19T22:44:46.274Z,6.03
2022-12-19T22:47:13.161Z,4.63
2022-12-19T22:49:40.228Z,5.15
2022-12-19T22:52:07.052Z,7.30
2022-12-19T22:54:33.945Z,7.32
2022-12-19T22:57:00.789Z,8.60
2022-12-19T22:59:27.690Z,4.28
2022-12-19T23:01:54.678Z,4.28
2022-12-19T23:04:21.815Z,5.70
2022-12-19T23:06:48.747Z,7.55
2022-12-19T23:09:17.686Z,4.38
2022-12-19T23:11:47.743Z,4.20
2022-12-19T23:14:16.727Z,7.60
2022-12-19T23:16:45.018Z,4.72
2022-12-19T23:19:13.888Z,6.22
2022-12-19T23:21:41.098Z,5.72
2022-12-19T23:24:11.780Z,8.23
2022-12-19T23:26:39.290Z,4.93
2022-12-19T23:29:09.790Z,4.37
2022-12-19T23:31:40.644Z,5.50
2022-12-19T23:34:08.219Z,4.53
2022-12-19T23:39:21.972Z,4.65
2022-12-19T23:41:48.826Z,7.05
2022-12-19T23:44:16.039Z,5.05
2022-12-19T23:46:42.974Z,6.75
2022-12-19T23:49:10.037Z,7.35
2022-12-19T23:51:36.986Z,5.10
2022-12-19T23:54:03.980Z,5.15
2022-12-19T23:56:32.426Z,5.20
2022-12-19T23:58:59.363Z,4.43
